sensor_id;sensor_type;location;lat;lon;timestamp;temperature;humidity
4435;DHT22;46552;52.150;8.428;2023-07-28T00:03:55;17.80;99.90
4435;DHT22;46552;52.150;8.428;2023-07-28T00:11:19;17.60;99.90
4435;DHT22;46552;52.150;8.428;2023-07-28T00:13:46;17.70;99.90
4435;DHT22;46552;52.150;8.428;2023-07-28T00:16:14;17.80;99.90
4435;DHT22;46552;52.150;8.428;2023-07-28T00:21:11;17.80;99.90
4435;DHT22;46552;52.150;8.428;2023-07-28T00:38:24;18.00;99.90
4435;DHT22;46552;52.150;8.428;2023-07-28T00:48:14;18.50;99.90
4435;DHT22;46552;52.150;8.428;2023-07-28T00:50:44;17.60;99.90
4435;DHT22;46552;52.150;8.428;2023-07-28T00:55:41;17.80;99.90
4435;DHT22;46552;52.150;8.428;2023-07-28T01:03:03;17.70;99.90
4435;DHT22;46552;52.150;8.428;2023-07-28T01:05:36;17.90;99.90
4435;DHT22;46552;52.150;8.428;2023-07-28T01:08:09;17.90;99.90
4435;DHT22;46552;52.150;8.428;2023-07-28T01:10:38;17.90;99.90
4435;DHT22;46552;52.150;8.428;2023-07-28T01:13:07;17.90;99.90
4435;DHT22;46552;52.150;8.428;2023-07-28T01:18:01;17.80;99.90
4435;DHT22;46552;52.150;8.428;2023-07-28T01:20:31;17.90;99.90
4435;DHT22;46552;52.150;8.428;2023-07-28T01:23:18;18.00;99.90
4435;DHT22;46552;52.150;8.428;2023-07-28T01:25:55;17.60;99.90
4435;DHT22;46552;52.150;8.428;2023-07-28T01:28:27;17.90;99.90
4435;DHT22;46552;52.150;8.428;2023-07-28T01:35:49;18.00;99.90
4435;DHT22;46552;52.150;8.428;2023-07-28T01:43:11;17.80;99.90
4435;DHT22;46552;52.150;8.428;2023-07-28T01:45:39;17.90;99.90
4435;DHT22;46552;52.150;8.428;2023-07-28T01:48:07;18.20;99.90
4435;DHT22;46552;52.150;8.428;2023-07-28T01:53:03;17.70;99.90
4435;DHT22;46552;52.150;8.428;2023-07-28T01:57:59;17.90;99.90
4435;DHT22;46552;52.150;8.428;2023-07-28T02:00:27;17.70;99.90
4435;DHT22;46552;52.150;8.428;2023-07-28T02:02:56;17.90;99.90
4435;DHT22;46552;52.150;8.428;2023-07-28T02:07:51;17.90;99.90
4435;DHT22;46552;52.150;8.428;2023-07-28T02:10:18;17.70;99.90
4435;DHT22;46552;52.150;8.428;2023-07-28T02:12:46;17.60;99.90
4435;DHT22;46552;52.150;8.428;2023-07-28T02:15:13;18.00;99.90
4435;DHT22;46552;52.150;8.428;2023-07-28T02:20:09;17.90;99.90
4435;DHT22;46552;52.150;8.428;2023-07-28T02:25:06;18.00;99.90
4435;DHT22;46552;52.150;8.428;2023-07-28T02:27:34;18.60;99.90
4435;DHT22;46552;52.150;8.428;2023-07-28T02:30:01;17.50;99.90
4435;DHT22;46552;52.150;8.428;2023-07-28T02:32:30;17.60;99.90
4435;DHT22;46552;52.150;8.428;2023-07-28T02:37:26;17.80;99.90
4435;DHT22;46552;52.150;8.428;2023-07-28T02:52:11;17.80;99.90
4435;DHT22;46552;52.150;8.428;2023-07-28T02:54:40;17.60;99.90
4435;DHT22;46552;52.150;8.428;2023-07-28T02:57:07;17.80;99.90
4435;DHT22;46552;52.150;8.428;2023-07-28T03:02:02;17.90;99.90
4435;DHT22;46552;52.150;8.428;2023-07-28T03:11:52;17.80;99.90
4435;DHT22;46552;52.150;8.428;2023-07-28T03:14:19;17.80;99.90
4435;DHT22;46552;52.150;8.428;2023-07-28T03:29:06;17.80;99.90
4435;DHT22;46552;52.150;8.428;2023-07-28T03:43:50;17.60;99.90
4435;DHT22;46552;52.150;8.428;2023-07-28T03:46:19;17.80;99.90
4435;DHT22;46552;52.150;8.428;2023-07-28T03:51:13;18.00;99.90
4435;DHT22;46552;52.150;8.428;2023-07-28T04:03:34;17.80;99.90
4435;DHT22;46552;52.150;8.428;2023-07-28T04:06:05;17.80;99.90
4435;DHT22;46552;52.150;8.428;2023-07-28T04:15:56;17.60;99.90
4435;DHT22;46552;52.150;8.428;2023-07-28T04:20:53;17.80;99.90
4435;DHT22;46552;52.150;8.428;2023-07-28T04:38:05;17.80;99.90
4435;DHT22;46552;52.150;8.428;2023-07-28T04:55:18;17.90;99.90
4435;DHT22;46552;52.150;8.428;2023-07-28T05:00:15;17.50;99.90
4435;DHT22;46552;52.150;8.428;2023-07-28T05:05:10;17.70;99.90
4435;DHT22;46552;52.150;8.428;2023-07-28T05:10:05;18.00;99.90
4435;DHT22;46552;52.150;8.428;2023-07-28T05:12:34;17.90;99.90
4435;DHT22;46552;52.150;8.428;2023-07-28T05:29:50;20.30;99.90
4435;DHT22;46552;52.150;8.428;2023-07-28T05:34:44;18.30;99.90
4435;DHT22;46552;52.150;8.428;2023-07-28T05:42:07;18.10;99.90
4435;DHT22;46552;52.150;8.428;2023-07-28T05:44:34;18.30;99.90
4435;DHT22;46552;52.150;8.428;2023-07-28T05:47:05;18.20;99.90
4435;DHT22;46552;52.150;8.428;2023-07-28T05:49:32;18.40;99.90
4435;DHT22;46552;52.150;8.428;2023-07-28T05:54:26;18.30;99.90
4435;DHT22;46552;52.150;8.428;2023-07-28T06:04:18;18.40;99.90
4435;DHT22;46552;52.150;8.428;2023-07-28T06:16:35;18.60;99.90
4435;DHT22;46552;52.150;8.428;2023-07-28T06:21:32;18.60;99.90
4435;DHT22;46552;52.150;8.428;2023-07-28T06:38:45;18.80;99.90
4435;DHT22;46552;52.150;8.428;2023-07-28T06:53:33;18.90;99.90
4435;DHT22;46552;52.150;8.428;2023-07-28T06:56:02;18.90;99.90
4435;DHT22;46552;52.150;8.428;2023-07-28T06:58:29;18.80;99.90
4435;DHT22;46552;52.150;8.428;2023-07-28T07:05:51;19.10;99.90
4435;DHT22;46552;52.150;8.428;2023-07-28T07:10:48;19.10;99.90
4435;DHT22;46552;52.150;8.428;2023-07-28T07:13:17;19.30;99.90
4435;DHT22;46552;52.150;8.428;2023-07-28T07:20:40;18.90;99.90
4435;DHT22;46552;52.150;8.428;2023-07-28T07:28:03;19.10;99.90
4435;DHT22;46552;52.150;8.428;2023-07-28T07:30:33;19.20;99.90
4435;DHT22;46552;52.150;8.428;2023-07-28T07:37:56;19.30;99.90
4435;DHT22;46552;52.150;8.428;2023-07-28T07:47:46;19.40;99.90
4435;DHT22;46552;52.150;8.428;2023-07-28T07:50:13;19.00;99.90
4435;DHT22;46552;52.150;8.428;2023-07-28T07:52:41;19.30;99.90
4435;DHT22;46552;52.150;8.428;2023-07-28T07:55:10;19.60;99.90
4435;DHT22;46552;52.150;8.428;2023-07-28T08:00:06;19.50;99.90
4435;DHT22;46552;52.150;8.428;2023-07-28T08:05:03;19.60;99.90
4435;DHT22;46552;52.150;8.428;2023-07-28T08:07:30;19.50;99.90
4435;DHT22;46552;52.150;8.428;2023-07-28T08:09:57;19.60;99.90
4435;DHT22;46552;52.150;8.428;2023-07-28T08:19:47;20.60;99.90
4435;DHT22;46552;52.150;8.428;2023-07-28T08:22:16;20.60;99.90
4435;DHT22;46552;52.150;8.428;2023-07-28T08:24:44;20.70;99.90
4435;DHT22;46552;52.150;8.428;2023-07-28T08:27:11;21.00;99.90
4435;DHT22;46552;52.150;8.428;2023-07-28T08:32:06;21.20;99.90
4435;DHT22;46552;52.150;8.428;2023-07-28T08:34:34;21.30;99.90
4435;DHT22;46552;52.150;8.428;2023-07-28T08:39:31;21.50;99.90
4435;DHT22;46552;52.150;8.428;2023-07-28T08:42:00;21.60;99.90
4435;DHT22;46552;52.150;8.428;2023-07-28T08:44:30;21.70;99.90
4435;DHT22;46552;52.150;8.428;2023-07-28T08:46:58;21.60;99.90
4435;DHT22;46552;52.150;8.428;2023-07-28T08:51:56;22.10;99.90
4435;DHT22;46552;52.150;8.428;2023-07-28T08:54:24;22.10;99.90
4435;DHT22;46552;52.150;8.428;2023-07-28T08:56:53;22.20;99.90
4435;DHT22;46552;52.150;8.428;2023-07-28T08:59:21;22.30;99.90
4435;DHT22;46552;52.150;8.428;2023-07-28T09:01:51;22.30;99.90
4435;DHT22;46552;52.150;8.428;2023-07-28T09:06:48;22.60;99.90
4435;DHT22;46552;52.150;8.428;2023-07-28T09:09:18;22.90;99.90
4435;DHT22;46552;52.150;8.428;2023-07-28T09:11:46;22.90;99.90
4435;DHT22;46552;52.150;8.428;2023-07-28T09:14:16;22.90;99.90
4435;DHT22;46552;52.150;8.428;2023-07-28T09:19:12;22.70;99.90
4435;DHT22;46552;52.150;8.428;2023-07-28T09:21:40;22.50;99.90
4435;DHT22;46552;52.150;8.428;2023-07-28T09:24:10;22.40;99.90
4435;DHT22;46552;52.150;8.428;2023-07-28T09:26:39;22.20;99.90
4435;DHT22;46552;52.150;8.428;2023-07-28T09:29:12;22.40;99.90
4435;DHT22;46552;52.150;8.428;2023-07-28T09:31:42;22.50;99.90
4435;DHT22;46552;52.150;8.428;2023-07-28T09:34:10;20.90;99.90
4435;DHT22;46552;52.150;8.428;2023-07-28T09:36:38;22.70;99.90
4435;DHT22;46552;52.150;8.428;2023-07-28T09:39:06;22.80;99.90
4435;DHT22;46552;52.150;8.428;2023-07-28T09:41:35;22.70;99.90
4435;DHT22;46552;52.150;8.428;2023-07-28T09:44:03;22.70;99.90
4435;DHT22;46552;52.150;8.428;2023-07-28T09:46:33;23.00;99.90
4435;DHT22;46552;52.150;8.428;2023-07-28T09:49:05;23.00;99.90
4435;DHT22;46552;52.150;8.428;2023-07-28T09:51:36;23.10;99.90
4435;DHT22;46552;52.150;8.428;2023-07-28T09:54:05;23.00;99.90
4435;DHT22;46552;52.150;8.428;2023-07-28T09:56:33;23.30;99.90
4435;DHT22;46552;52.150;8.428;2023-07-28T09:59:04;22.50;99.90
4435;DHT22;46552;52.150;8.428;2023-07-28T10:04:01;23.20;99.90
4435;DHT22;46552;52.150;8.428;2023-07-28T10:06:30;23.30;99.90
4435;DHT22;46552;52.150;8.428;2023-07-28T10:08:58;23.40;99.90
4435;DHT22;46552;52.150;8.428;2023-07-28T10:11:27;22.80;99.90
4435;DHT22;46552;52.150;8.428;2023-07-28T10:13:55;23.30;99.90
4435;DHT22;46552;52.150;8.428;2023-07-28T10:16:30;23.30;99.90
4435;DHT22;46552;52.150;8.428;2023-07-28T10:18:59;23.40;99.90
4435;DHT22;46552;52.150;8.428;2023-07-28T10:21:29;23.40;99.90
4435;DHT22;46552;52.150;8.428;2023-07-28T10:23:58;23.40;99.90
4435;DHT22;46552;52.150;8.428;2023-07-28T10:26:33;23.40;99.90
4435;DHT22;46552;52.150;8.428;2023-07-28T10:29:09;23.30;99.90
4435;DHT22;46552;52.150;8.428;2023-07-28T10:34:04;23.30;99.90
4435;DHT22;46552;52.150;8.428;2023-07-28T10:36:36;23.10;99.90
4435;DHT22;46552;52.150;8.428;2023-07-28T10:39:13;23.20;99.90
4435;DHT22;46552;52.150;8.428;2023-07-28T10:42:00;23.40;99.90
4435;DHT22;46552;52.150;8.428;2023-07-28T10:44:29;23.60;99.90
4435;DHT22;46552;52.150;8.428;2023-07-28T10:46:56;23.70;99.90
4435;DHT22;46552;52.150;8.428;2023-07-28T10:49:24;23.80;99.90
4435;DHT22;46552;52.150;8.428;2023-07-28T10:51:53;23.70;99.90
4435;DHT22;46552;52.150;8.428;2023-07-28T10:54:21;23.80;99.90
4435;DHT22;46552;52.150;8.428;2023-07-28T10:56:48;23.60;99.90
4435;DHT22;46552;52.150;8.428;2023-07-28T10:59:16;23.80;99.90
4435;DHT22;46552;52.150;8.428;2023-07-28T11:01:44;23.70;99.90
4435;DHT22;46552;52.150;8.428;2023-07-28T11:04:14;23.80;99.90
4435;DHT22;46552;52.150;8.428;2023-07-28T11:06:42;23.50;99.90
4435;DHT22;46552;52.150;8.428;2023-07-28T11:09:12;23.40;99.90
4435;DHT22;46552;52.150;8.428;2023-07-28T11:11:41;23.50;99.90
4435;DHT22;46552;52.150;8.428;2023-07-28T11:14:09;23.20;99.90
4435;DHT22;46552;52.150;8.428;2023-07-28T11:16:37;23.10;99.90
4435;DHT22;46552;52.150;8.428;2023-07-28T11:19:08;23.00;99.90
4435;DHT22;46552;52.150;8.428;2023-07-28T11:21:36;23.10;99.90
4435;DHT22;46552;52.150;8.428;2023-07-28T11:24:04;23.10;99.90
4435;DHT22;46552;52.150;8.428;2023-07-28T11:26:34;23.20;99.90
4435;DHT22;46552;52.150;8.428;2023-07-28T11:29:02;24.70;99.90
4435;DHT22;46552;52.150;8.428;2023-07-28T11:33:58;23.30;99.90
4435;DHT22;46552;52.150;8.428;2023-07-28T11:36:26;23.40;99.90
4435;DHT22;46552;52.150;8.428;2023-07-28T11:38:55;23.90;99.90
4435;DHT22;46552;52.150;8.428;2023-07-28T11:41:23;23.70;99.90
4435;DHT22;46552;52.150;8.428;2023-07-28T11:43:52;24.00;99.90
4435;DHT22;46552;52.150;8.428;2023-07-28T11:46:32;24.00;99.90
4435;DHT22;46552;52.150;8.428;2023-07-28T11:49:07;24.30;99.90
4435;DHT22;46552;52.150;8.428;2023-07-28T11:51:37;24.40;99.90
4435;DHT22;46552;52.150;8.428;2023-07-28T11:54:06;24.50;99.90
4435;DHT22;46552;52.150;8.428;2023-07-28T11:56:33;24.80;99.90
4435;DHT22;46552;52.150;8.428;2023-07-28T11:59:02;25.00;99.90
4435;DHT22;46552;52.150;8.428;2023-07-28T12:01:29;24.90;99.90
4435;DHT22;46552;52.150;8.428;2023-07-28T12:03:56;25.00;99.90
4435;DHT22;46552;52.150;8.428;2023-07-28T12:06:26;25.10;99.90
4435;DHT22;46552;52.150;8.428;2023-07-28T12:09:04;24.90;99.90
4435;DHT22;46552;52.150;8.428;2023-07-28T12:11:31;24.70;99.90
4435;DHT22;46552;52.150;8.428;2023-07-28T12:13:59;24.70;99.90
4435;DHT22;46552;52.150;8.428;2023-07-28T12:16:38;24.40;99.90
4435;DHT22;46552;52.150;8.428;2023-07-28T12:21:35;24.00;99.90
4435;DHT22;46552;52.150;8.428;2023-07-28T12:24:02;24.00;99.90
4435;DHT22;46552;52.150;8.428;2023-07-28T12:26:29;24.00;99.90
4435;DHT22;46552;52.150;8.428;2023-07-28T12:28:56;23.80;99.90
4435;DHT22;46552;52.150;8.428;2023-07-28T12:31:23;23.90;99.90
4435;DHT22;46552;52.150;8.428;2023-07-28T12:33:55;24.00;99.90
4435;DHT22;46552;52.150;8.428;2023-07-28T12:38:50;24.60;99.90
4435;DHT22;46552;52.150;8.428;2023-07-28T12:41:18;24.70;99.90
4435;DHT22;46552;52.150;8.428;2023-07-28T12:43:46;25.10;99.90
4435;DHT22;46552;52.150;8.428;2023-07-28T12:46:13;25.00;99.90
4435;DHT22;46552;52.150;8.428;2023-07-28T12:51:09;25.40;99.90
4435;DHT22;46552;52.150;8.428;2023-07-28T12:56:03;25.60;99.90
4435;DHT22;46552;52.150;8.428;2023-07-28T12:58:31;25.80;99.90
4435;DHT22;46552;52.150;8.428;2023-07-28T13:00:59;25.90;99.90
4435;DHT22;46552;52.150;8.428;2023-07-28T13:03:27;26.10;99.90
4435;DHT22;46552;52.150;8.428;2023-07-28T13:05:54;26.30;99.90
4435;DHT22;46552;52.150;8.428;2023-07-28T13:08:22;26.30;99.90
4435;DHT22;46552;52.150;8.428;2023-07-28T13:23:06;26.50;99.90
4435;DHT22;46552;52.150;8.428;2023-07-28T13:25:35;26.50;99.90
4435;DHT22;46552;52.150;8.428;2023-07-28T13:28:02;26.90;99.90
4435;DHT22;46552;52.150;8.428;2023-07-28T13:30:29;26.80;99.90
4435;DHT22;46552;52.150;8.428;2023-07-28T13:32:56;26.80;99.90
4435;DHT22;46552;52.150;8.428;2023-07-28T13:37:51;26.80;99.90
4435;DHT22;46552;52.150;8.428;2023-07-28T13:42:47;28.00;99.90
4435;DHT22;46552;52.150;8.428;2023-07-28T13:45:14;26.90;99.90
4435;DHT22;46552;52.150;8.428;2023-07-28T13:50:10;27.00;99.90
4435;DHT22;46552;52.150;8.428;2023-07-28T13:52:37;27.00;99.90
4435;DHT22;46552;52.150;8.428;2023-07-28T13:55:04;26.90;99.90
4435;DHT22;46552;52.150;8.428;2023-07-28T13:57:32;26.80;99.90
4435;DHT22;46552;52.150;8.428;2023-07-28T14:00:00;26.90;99.90
4435;DHT22;46552;52.150;8.428;2023-07-28T14:02:28;26.80;99.90
4435;DHT22;46552;52.150;8.428;2023-07-28T14:04:55;26.70;99.90
4435;DHT22;46552;52.150;8.428;2023-07-28T14:07:22;26.80;99.90
4435;DHT22;46552;52.150;8.428;2023-07-28T14:12:16;26.70;99.90
4435;DHT22;46552;52.150;8.428;2023-07-28T14:14:43;26.70;99.90
4435;DHT22;46552;52.150;8.428;2023-07-28T14:17:12;26.50;99.90
4435;DHT22;46552;52.150;8.428;2023-07-28T14:19:41;26.60;99.90
4435;DHT22;46552;52.150;8.428;2023-07-28T14:22:08;26.40;99.90
4435;DHT22;46552;52.150;8.428;2023-07-28T14:24:36;26.50;99.90
4435;DHT22;46552;52.150;8.428;2023-07-28T14:27:04;26.60;99.90
4435;DHT22;46552;52.150;8.428;2023-07-28T14:31:58;26.80;99.90
4435;DHT22;46552;52.150;8.428;2023-07-28T14:34:27;26.90;99.90
4435;DHT22;46552;52.150;8.428;2023-07-28T14:36:53;26.90;99.90
4435;DHT22;46552;52.150;8.428;2023-07-28T14:44:16;26.90;99.90
4435;DHT22;46552;52.150;8.428;2023-07-28T14:46:43;26.90;99.90
4435;DHT22;46552;52.150;8.428;2023-07-28T14:51:40;27.10;99.90
4435;DHT22;46552;52.150;8.428;2023-07-28T14:54:07;27.10;99.90
4435;DHT22;46552;52.150;8.428;2023-07-28T14:56:35;27.10;99.90
4435;DHT22;46552;52.150;8.428;2023-07-28T14:59:02;27.00;99.90
4435;DHT22;46552;52.150;8.428;2023-07-28T15:01:30;26.80;99.90
4435;DHT22;46552;52.150;8.428;2023-07-28T15:06:28;26.70;99.90
4435;DHT22;46552;52.150;8.428;2023-07-28T15:08:56;26.70;99.90
4435;DHT22;46552;52.150;8.428;2023-07-28T15:11:23;26.70;99.90
4435;DHT22;46552;52.150;8.428;2023-07-28T15:13:52;27.20;99.90
4435;DHT22;46552;52.150;8.428;2023-07-28T15:16:19;26.60;99.90
4435;DHT22;46552;52.150;8.428;2023-07-28T15:23:42;26.50;99.90
4435;DHT22;46552;52.150;8.428;2023-07-28T15:26:11;26.40;99.90
4435;DHT22;46552;52.150;8.428;2023-07-28T15:28:38;26.40;99.90
4435;DHT22;46552;52.150;8.428;2023-07-28T15:31:05;26.40;99.90
4435;DHT22;46552;52.150;8.428;2023-07-28T15:38:27;26.70;99.90
4435;DHT22;46552;52.150;8.428;2023-07-28T15:40:54;26.70;99.90
4435;DHT22;46552;52.150;8.428;2023-07-28T15:43:24;26.30;99.90
4435;DHT22;46552;52.150;8.428;2023-07-28T15:45:52;26.70;99.90
4435;DHT22;46552;52.150;8.428;2023-07-28T15:48:21;26.70;99.90
4435;DHT22;46552;52.150;8.428;2023-07-28T15:50:48;26.50;99.90
4435;DHT22;46552;52.150;8.428;2023-07-28T15:55:44;26.40;99.90
4435;DHT22;46552;52.150;8.428;2023-07-28T15:58:11;26.40;99.90
4435;DHT22;46552;52.150;8.428;2023-07-28T16:00:40;26.30;99.90
4435;DHT22;46552;52.150;8.428;2023-07-28T16:03:07;26.20;99.90
4435;DHT22;46552;52.150;8.428;2023-07-28T16:05:34;26.30;99.90
4435;DHT22;46552;52.150;8.428;2023-07-28T16:08:04;26.40;99.90
4435;DHT22;46552;52.150;8.428;2023-07-28T16:10:31;26.30;99.90
4435;DHT22;46552;52.150;8.428;2023-07-28T16:15:27;25.70;99.90
4435;DHT22;46552;52.150;8.428;2023-07-28T16:17:56;26.30;99.90
4435;DHT22;46552;52.150;8.428;2023-07-28T16:20:23;26.30;99.90
4435;DHT22;46552;52.150;8.428;2023-07-28T16:25:18;26.20;99.90
4435;DHT22;46552;52.150;8.428;2023-07-28T16:27:45;26.40;99.90
4435;DHT22;46552;52.150;8.428;2023-07-28T16:30:13;26.20;99.90
4435;DHT22;46552;52.150;8.428;2023-07-28T16:35:09;26.10;99.90
4435;DHT22;46552;52.150;8.428;2023-07-28T16:40:05;25.90;99.90
4435;DHT22;46552;52.150;8.428;2023-07-28T16:45:00;25.80;99.90
4435;DHT22;46552;52.150;8.428;2023-07-28T16:47:27;26.00;99.90
4435;DHT22;46552;52.150;8.428;2023-07-28T16:52:25;25.80;99.90
4435;DHT22;46552;52.150;8.428;2023-07-28T16:57:20;25.80;99.90
4435;DHT22;46552;52.150;8.428;2023-07-28T16:59:47;25.70;99.90
4435;DHT22;46552;52.150;8.428;2023-07-28T17:02:15;25.80;99.90
4435;DHT22;46552;52.150;8.428;2023-07-28T17:09:39;25.60;99.90
4435;DHT22;46552;52.150;8.428;2023-07-28T17:12:07;25.40;99.90
4435;DHT22;46552;52.150;8.428;2023-07-28T17:21:56;25.50;99.90
4435;DHT22;46552;52.150;8.428;2023-07-28T17:24:23;25.60;99.90
4435;DHT22;46552;52.150;8.428;2023-07-28T17:26:52;25.50;99.90
4435;DHT22;46552;52.150;8.428;2023-07-28T17:29:19;25.40;99.90
4435;DHT22;46552;52.150;8.428;2023-07-28T17:34:15;25.30;99.90
4435;DHT22;46552;52.150;8.428;2023-07-28T17:36:42;25.30;99.90
4435;DHT22;46552;52.150;8.428;2023-07-28T17:39:11;25.30;99.90
4435;DHT22;46552;52.150;8.428;2023-07-28T17:41:38;25.20;99.90
4435;DHT22;46552;52.150;8.428;2023-07-28T17:44:07;25.20;99.90
4435;DHT22;46552;52.150;8.428;2023-07-28T17:46:34;25.20;99.90
4435;DHT22;46552;52.150;8.428;2023-07-28T17:49:02;25.20;99.90
4435;DHT22;46552;52.150;8.428;2023-07-28T17:53:56;24.90;99.90
4435;DHT22;46552;52.150;8.428;2023-07-28T17:56:25;25.00;99.90
4435;DHT22;46552;52.150;8.428;2023-07-28T18:01:21;24.90;99.90
4435;DHT22;46552;52.150;8.428;2023-07-28T18:03:48;24.90;99.90
4435;DHT22;46552;52.150;8.428;2023-07-28T18:08:44;24.90;99.90
4435;DHT22;46552;52.150;8.428;2023-07-28T18:13:38;24.70;99.90
4435;DHT22;46552;52.150;8.428;2023-07-28T18:16:06;24.60;99.90
4435;DHT22;46552;52.150;8.428;2023-07-28T18:18:35;24.60;99.90
4435;DHT22;46552;52.150;8.428;2023-07-28T18:21:02;24.50;99.90
4435;DHT22;46552;52.150;8.428;2023-07-28T18:28:24;24.40;99.90
4435;DHT22;46552;52.150;8.428;2023-07-28T18:30:53;24.50;99.90
4435;DHT22;46552;52.150;8.428;2023-07-28T18:35:50;24.30;99.90
4435;DHT22;46552;52.150;8.428;2023-07-28T18:38:19;24.30;99.90
4435;DHT22;46552;52.150;8.428;2023-07-28T18:40:46;24.30;99.90
4435;DHT22;46552;52.150;8.428;2023-07-28T18:43:13;24.20;99.90
4435;DHT22;46552;52.150;8.428;2023-07-28T18:48:07;24.40;99.90
4435;DHT22;46552;52.150;8.428;2023-07-28T18:53:03;24.00;99.90
4435;DHT22;46552;52.150;8.428;2023-07-28T19:00:25;23.70;99.90
4435;DHT22;46552;52.150;8.428;2023-07-28T19:02:52;23.70;99.90
4435;DHT22;46552;52.150;8.428;2023-07-28T19:05:21;23.60;99.90
4435;DHT22;46552;52.150;8.428;2023-07-28T19:07:48;23.40;99.90
4435;DHT22;46552;52.150;8.428;2023-07-28T19:10:18;23.50;99.90
4435;DHT22;46552;52.150;8.428;2023-07-28T19:12:46;23.50;99.90
4435;DHT22;46552;52.150;8.428;2023-07-28T19:17:41;23.50;99.90
4435;DHT22;46552;52.150;8.428;2023-07-28T19:20:08;23.30;99.90
4435;DHT22;46552;52.150;8.428;2023-07-28T19:22:36;23.20;99.90
4435;DHT22;46552;52.150;8.428;2023-07-28T19:25:04;23.40;99.90
4435;DHT22;46552;52.150;8.428;2023-07-28T19:27:35;23.20;99.90
4435;DHT22;46552;52.150;8.428;2023-07-28T19:30:03;23.10;99.90
4435;DHT22;46552;52.150;8.428;2023-07-28T19:32:31;23.00;99.90
4435;DHT22;46552;52.150;8.428;2023-07-28T19:34:58;23.10;99.90
4435;DHT22;46552;52.150;8.428;2023-07-28T19:37:25;23.10;99.90
4435;DHT22;46552;52.150;8.428;2023-07-28T19:39:52;22.90;99.90
4435;DHT22;46552;52.150;8.428;2023-07-28T19:42:19;23.00;99.90
4435;DHT22;46552;52.150;8.428;2023-07-28T19:44:48;23.00;99.90
4435;DHT22;46552;52.150;8.428;2023-07-28T19:47:15;23.00;99.90
4435;DHT22;46552;52.150;8.428;2023-07-28T19:49:43;22.80;99.90
4435;DHT22;46552;52.150;8.428;2023-07-28T19:52:10;22.80;99.90
4435;DHT22;46552;52.150;8.428;2023-07-28T19:54:37;22.90;99.90
4435;DHT22;46552;52.150;8.428;2023-07-28T19:57:06;22.90;99.90
4435;DHT22;46552;52.150;8.428;2023-07-28T19:59:33;22.70;99.90
4435;DHT22;46552;52.150;8.428;2023-07-28T20:02:02;22.80;99.90
4435;DHT22;46552;52.150;8.428;2023-07-28T20:04:29;22.70;99.90
4435;DHT22;46552;52.150;8.428;2023-07-28T20:06:57;22.70;99.90
4435;DHT22;46552;52.150;8.428;2023-07-28T20:09:26;22.70;99.90
4435;DHT22;46552;52.150;8.428;2023-07-28T20:14:22;22.50;99.90
4435;DHT22;46552;52.150;8.428;2023-07-28T20:16:49;22.80;99.90
4435;DHT22;46552;52.150;8.428;2023-07-28T20:19:17;22.70;99.90
4435;DHT22;46552;52.150;8.428;2023-07-28T20:21:45;22.50;99.90
4435;DHT22;46552;52.150;8.428;2023-07-28T20:24:12;22.50;99.90
4435;DHT22;46552;52.150;8.428;2023-07-28T20:26:39;22.50;99.90
4435;DHT22;46552;52.150;8.428;2023-07-28T20:34:01;22.50;99.90
4435;DHT22;46552;52.150;8.428;2023-07-28T20:36:30;23.10;99.90
4435;DHT22;46552;52.150;8.428;2023-07-28T20:38:57;22.40;99.90
4435;DHT22;46552;52.150;8.428;2023-07-28T20:41:24;22.20;99.90
4435;DHT22;46552;52.150;8.428;2023-07-28T20:43:51;22.40;99.90
4435;DHT22;46552;52.150;8.428;2023-07-28T20:48:47;22.40;99.90
4435;DHT22;46552;52.150;8.428;2023-07-28T20:51:14;22.30;99.90
4435;DHT22;46552;52.150;8.428;2023-07-28T20:53:43;22.20;99.90
4435;DHT22;46552;52.150;8.428;2023-07-28T20:58:41;22.20;99.90
4435;DHT22;46552;52.150;8.428;2023-07-28T21:01:08;22.30;99.90
4435;DHT22;46552;52.150;8.428;2023-07-28T21:03:35;22.30;99.90
4435;DHT22;46552;52.150;8.428;2023-07-28T21:06:03;22.10;99.90
4435;DHT22;46552;52.150;8.428;2023-07-28T21:10:59;22.10;99.90
4435;DHT22;46552;52.150;8.428;2023-07-28T21:13:26;22.00;99.90
4435;DHT22;46552;52.150;8.428;2023-07-28T21:15:53;22.10;99.90
4435;DHT22;46552;52.150;8.428;2023-07-28T21:23:15;21.80;99.90
4435;DHT22;46552;52.150;8.428;2023-07-28T21:25:42;21.70;99.90
4435;DHT22;46552;52.150;8.428;2023-07-28T21:28:11;21.70;99.90
4435;DHT22;46552;52.150;8.428;2023-07-28T21:33:06;21.20;99.90
4435;DHT22;46552;52.150;8.428;2023-07-28T21:35:34;21.50;99.90
4435;DHT22;46552;52.150;8.428;2023-07-28T21:38:02;21.70;99.90
4435;DHT22;46552;52.150;8.428;2023-07-28T21:40:30;21.50;99.90
4435;DHT22;46552;52.150;8.428;2023-07-28T21:42:57;21.60;99.90
4435;DHT22;46552;52.150;8.428;2023-07-28T21:45:27;21.50;99.90
4435;DHT22;46552;52.150;8.428;2023-07-28T21:47:54;21.30;99.90
4435;DHT22;46552;52.150;8.428;2023-07-28T21:50:23;21.40;99.90
4435;DHT22;46552;52.150;8.428;2023-07-28T21:52:50;21.40;99.90
4435;DHT22;46552;52.150;8.428;2023-07-28T21:55:17;21.20;99.90
4435;DHT22;46552;52.150;8.428;2023-07-28T21:57:45;21.40;99.90
4435;DHT22;46552;52.150;8.428;2023-07-28T22:00:13;21.20;99.90
4435;DHT22;46552;52.150;8.428;2023-07-28T22:02:42;21.20;99.90
4435;DHT22;46552;52.150;8.428;2023-07-28T22:05:10;21.20;99.90
4435;DHT22;46552;52.150;8.428;2023-07-28T22:07:38;21.10;99.90
4435;DHT22;46552;52.150;8.428;2023-07-28T22:10:06;21.00;99.90
4435;DHT22;46552;52.150;8.428;2023-07-28T22:12:33;21.30;99.90
4435;DHT22;46552;52.150;8.428;2023-07-28T22:17:28;21.10;99.90
4435;DHT22;46552;52.150;8.428;2023-07-28T22:19:57;21.00;99.90
4435;DHT22;46552;52.150;8.428;2023-07-28T22:22:24;21.10;99.90
4435;DHT22;46552;52.150;8.428;2023-07-28T22:24:52;20.40;99.90
4435;DHT22;46552;52.150;8.428;2023-07-28T22:29:47;21.00;99.90
4435;DHT22;46552;52.150;8.428;2023-07-28T22:32:16;20.80;99.90
4435;DHT22;46552;52.150;8.428;2023-07-28T22:34:43;20.80;99.90
4435;DHT22;46552;52.150;8.428;2023-07-28T22:37:12;20.80;99.90
4435;DHT22;46552;52.150;8.428;2023-07-28T22:39:39;20.80;99.90
4435;DHT22;46552;52.150;8.428;2023-07-28T22:42:06;20.80;99.90
4435;DHT22;46552;52.150;8.428;2023-07-28T22:44:34;20.70;99.90
4435;DHT22;46552;52.150;8.428;2023-07-28T22:49:28;20.70;99.90
4435;DHT22;46552;52.150;8.428;2023-07-28T22:51:55;20.80;99.90
4435;DHT22;46552;52.150;8.428;2023-07-28T22:54:24;20.70;99.90
4435;DHT22;46552;52.150;8.428;2023-07-28T22:56:52;20.70;99.90
4435;DHT22;46552;52.150;8.428;2023-07-28T22:59:19;20.60;99.90
4435;DHT22;46552;52.150;8.428;2023-07-28T23:01:46;20.60;99.90
4435;DHT22;46552;52.150;8.428;2023-07-28T23:04:14;20.40;99.90
4435;DHT22;46552;52.150;8.428;2023-07-28T23:06:42;20.60;99.90
4435;DHT22;46552;52.150;8.428;2023-07-28T23:09:12;20.70;99.90
4435;DHT22;46552;52.150;8.428;2023-07-28T23:11:42;20.60;99.90
4435;DHT22;46552;52.150;8.428;2023-07-28T23:16:38;20.50;99.90
4435;DHT22;46552;52.150;8.428;2023-07-28T23:19:06;20.70;99.90
4435;DHT22;46552;52.150;8.428;2023-07-28T23:21:36;20.60;99.90
4435;DHT22;46552;52.150;8.428;2023-07-28T23:24:03;20.60;99.90
4435;DHT22;46552;52.150;8.428;2023-07-28T23:26:31;20.60;99.90